sensor_id;sensor_type;location;lat;lon;timestamp;P1;durP1;ratioP1;P2;durP2;ratioP2
31760;SDS011;18335;51.486;7.562;2023-09-30T00:01:47;13.63;;;4.47;;
31760;SDS011;18335;51.486;7.562;2023-09-30T00:04:14;14.55;;;5.10;;
31760;SDS011;18335;51.486;7.562;2023-09-30T00:06:41;14.90;;;4.07;;
31760;SDS011;18335;51.486;7.562;2023-09-30T00:09:08;18.08;;;5.03;;
31760;SDS011;18335;51.486;7.562;2023-09-30T00:11:35;12.50;;;4.60;;
31760;SDS011;18335;51.486;7.562;2023-09-30T00:14:03;19.15;;;4.50;;
31760;SDS011;18335;51.486;7.562;2023-09-30T00:16:30;18.27;;;4.93;;
31760;SDS011;18335;51.486;7.562;2023-09-30T00:18:57;19.17;;;5.05;;
31760;SDS011;18335;51.486;7.562;2023-09-30T00:21:24;14.80;;;4.85;;
31760;SDS011;18335;51.486;7.562;2023-09-30T00:23:51;19.98;;;5.38;;
31760;SDS011;18335;51.486;7.562;2023-09-30T00:26:17;15.30;;;5.00;;
31760;SDS011;18335;51.486;7.562;2023-09-30T00:28:46;11.38;;;4.32;;
31760;SDS011;18335;51.486;7.562;2023-09-30T00:31:14;19.25;;;4.70;;
31760;SDS011;18335;51.486;7.562;2023-09-30T00:33:41;16.33;;;4.50;;
31760;SDS011;18335;51.486;7.562;2023-09-30T00:36:08;16.00;;;4.63;;
31760;SDS011;18335;51.486;7.562;2023-09-30T00:38:36;14.38;;;4.05;;
31760;SDS011;18335;51.486;7.562;2023-09-30T00:41:03;18.55;;;5.72;;
31760;SDS011;18335;51.486;7.562;2023-09-30T00:43:30;13.77;;;3.75;;
31760;SDS011;18335;51.486;7.562;2023-09-30T00:46:01;15.80;;;4.35;;
31760;SDS011;18335;51.486;7.562;2023-09-30T00:48:32;13.27;;;4.32;;
31760;SDS011;18335;51.486;7.562;2023-09-30T00:51:00;17.17;;;4.63;;
31760;SDS011;18335;51.486;7.562;2023-09-30T00:53:27;13.27;;;4.30;;
31760;SDS011;18335;51.486;7.562;2023-09-30T00:55:55;18.15;;;3.90;;
31760;SDS011;18335;51.486;7.562;2023-09-30T00:58:22;20.48;;;6.20;;
31760;SDS011;18335;51.486;7.562;2023-09-30T01:00:54;15.10;;;6.35;;
31760;SDS011;18335;51.486;7.562;2023-09-30T01:03:22;13.63;;;4.57;;
31760;SDS011;18335;51.486;7.562;2023-09-30T01:05:51;17.15;;;4.85;;
31760;SDS011;18335;51.486;7.562;2023-09-30T01:08:18;14.63;;;3.88;;
31760;SDS011;18335;51.486;7.562;2023-09-30T01:10:46;10.02;;;3.33;;
31760;SDS011;18335;51.486;7.562;2023-09-30T01:13:13;11.75;;;4.20;;
31760;SDS011;18335;51.486;7.562;2023-09-30T01:15:40;12.10;;;3.50;;
31760;SDS011;18335;51.486;7.562;2023-09-30T01:18:07;13.85;;;3.83;;
31760;SDS011;18335;51.486;7.562;2023-09-30T01:20:34;15.75;;;3.75;;
31760;SDS011;18335;51.486;7.562;2023-09-30T01:23:02;17.88;;;3.33;;
31760;SDS011;18335;51.486;7.562;2023-09-30T01:25:30;17.70;;;4.53;;
31760;SDS011;18335;51.486;7.562;2023-09-30T01:27:58;26.00;;;5.00;;
31760;SDS011;18335;51.486;7.562;2023-09-30T01:30:31;12.55;;;3.72;;
31760;SDS011;18335;51.486;7.562;2023-09-30T01:32:58;18.73;;;5.03;;
31760;SDS011;18335;51.486;7.562;2023-09-30T01:35:26;15.93;;;4.03;;
31760;SDS011;18335;51.486;7.562;2023-09-30T01:37:53;18.40;;;4.00;;
31760;SDS011;18335;51.486;7.562;2023-09-30T01:40:21;9.27;;;3.08;;
31760;SDS011;18335;51.486;7.562;2023-09-30T01:42:47;11.77;;;3.85;;
31760;SDS011;18335;51.486;7.562;2023-09-30T01:45:14;12.93;;;3.28;;
31760;SDS011;18335;51.486;7.562;2023-09-30T01:47:41;12.00;;;4.32;;
31760;SDS011;18335;51.486;7.562;2023-09-30T01:50:08;17.13;;;3.42;;
31760;SDS011;18335;51.486;7.562;2023-09-30T01:52:35;14.00;;;2.92;;
31760;SDS011;18335;51.486;7.562;2023-09-30T01:55:02;11.10;;;3.60;;
31760;SDS011;18335;51.486;7.562;2023-09-30T01:57:30;13.00;;;3.15;;
31760;SDS011;18335;51.486;7.562;2023-09-30T01:59:57;12.07;;;3.05;;
31760;SDS011;18335;51.486;7.562;2023-09-30T02:02:24;10.98;;;2.80;;
31760;SDS011;18335;51.486;7.562;2023-09-30T02:04:51;11.85;;;4.15;;
31760;SDS011;18335;51.486;7.562;2023-09-30T02:07:19;18.45;;;4.22;;
31760;SDS011;18335;51.486;7.562;2023-09-30T02:09:46;14.60;;;3.65;;
31760;SDS011;18335;51.486;7.562;2023-09-30T02:12:14;16.08;;;3.70;;
31760;SDS011;18335;51.486;7.562;2023-09-30T02:14:42;11.85;;;2.80;;
31760;SDS011;18335;51.486;7.562;2023-09-30T02:17:09;15.18;;;3.90;;
31760;SDS011;18335;51.486;7.562;2023-09-30T02:19:36;14.05;;;4.28;;
31760;SDS011;18335;51.486;7.562;2023-09-30T02:22:03;16.55;;;5.32;;
31760;SDS011;18335;51.486;7.562;2023-09-30T02:24:30;15.38;;;2.90;;
31760;SDS011;18335;51.486;7.562;2023-09-30T02:26:57;16.88;;;5.90;;
31760;SDS011;18335;51.486;7.562;2023-09-30T02:29:23;15.13;;;5.25;;
31760;SDS011;18335;51.486;7.562;2023-09-30T02:31:52;15.48;;;3.30;;
31760;SDS011;18335;51.486;7.562;2023-09-30T02:34:20;12.57;;;3.10;;
31760;SDS011;18335;51.486;7.562;2023-09-30T02:36:47;9.93;;;3.33;;
31760;SDS011;18335;51.486;7.562;2023-09-30T02:39:14;13.68;;;3.60;;
31760;SDS011;18335;51.486;7.562;2023-09-30T02:41:41;13.82;;;3.97;;
31760;SDS011;18335;51.486;7.562;2023-09-30T02:44:08;10.77;;;3.00;;
31760;SDS011;18335;51.486;7.562;2023-09-30T02:46:35;10.95;;;3.25;;
31760;SDS011;18335;51.486;7.562;2023-09-30T02:49:04;12.38;;;2.90;;
31760;SDS011;18335;51.486;7.562;2023-09-30T02:51:31;19.52;;;3.55;;
31760;SDS011;18335;51.486;7.562;2023-09-30T02:53:57;13.63;;;3.95;;
31760;SDS011;18335;51.486;7.562;2023-09-30T02:56:24;11.23;;;2.85;;
31760;SDS011;18335;51.486;7.562;2023-09-30T02:58:53;8.82;;;3.28;;
31760;SDS011;18335;51.486;7.562;2023-09-30T03:01:20;11.57;;;3.05;;
31760;SDS011;18335;51.486;7.562;2023-09-30T03:03:47;12.32;;;3.30;;
31760;SDS011;18335;51.486;7.562;2023-09-30T03:06:15;11.80;;;2.60;;
31760;SDS011;18335;51.486;7.562;2023-09-30T03:08:44;13.70;;;3.38;;
31760;SDS011;18335;51.486;7.562;2023-09-30T03:11:12;17.67;;;3.42;;
31760;SDS011;18335;51.486;7.562;2023-09-30T03:13:38;9.98;;;3.45;;
31760;SDS011;18335;51.486;7.562;2023-09-30T03:16:07;16.88;;;3.30;;
31760;SDS011;18335;51.486;7.562;2023-09-30T03:18:34;14.45;;;3.28;;
31760;SDS011;18335;51.486;7.562;2023-09-30T03:21:01;12.73;;;3.08;;
31760;SDS011;18335;51.486;7.562;2023-09-30T03:23:35;14.30;;;3.38;;
31760;SDS011;18335;51.486;7.562;2023-09-30T03:26:03;13.13;;;3.70;;
31760;SDS011;18335;51.486;7.562;2023-09-30T03:28:35;14.15;;;3.55;;
31760;SDS011;18335;51.486;7.562;2023-09-30T03:31:02;21.13;;;4.45;;
31760;SDS011;18335;51.486;7.562;2023-09-30T03:33:30;13.80;;;3.70;;
31760;SDS011;18335;51.486;7.562;2023-09-30T03:35:56;15.18;;;3.90;;
31760;SDS011;18335;51.486;7.562;2023-09-30T03:38:25;15.52;;;3.97;;
31760;SDS011;18335;51.486;7.562;2023-09-30T03:40:53;14.98;;;4.85;;
31760;SDS011;18335;51.486;7.562;2023-09-30T03:43:20;20.10;;;4.47;;
31760;SDS011;18335;51.486;7.562;2023-09-30T03:45:48;16.83;;;4.97;;
31760;SDS011;18335;51.486;7.562;2023-09-30T03:48:15;14.80;;;4.25;;
31760;SDS011;18335;51.486;7.562;2023-09-30T03:50:44;16.52;;;3.80;;
31760;SDS011;18335;51.486;7.562;2023-09-30T03:53:10;16.40;;;4.97;;
31760;SDS011;18335;51.486;7.562;2023-09-30T03:55:37;15.02;;;4.65;;
31760;SDS011;18335;51.486;7.562;2023-09-30T03:58:05;18.25;;;4.53;;
31760;SDS011;18335;51.486;7.562;2023-09-30T04:00:32;16.17;;;5.35;;
31760;SDS011;18335;51.486;7.562;2023-09-30T04:02:59;16.55;;;5.97;;
31760;SDS011;18335;51.486;7.562;2023-09-30T04:05:26;20.65;;;5.30;;
31760;SDS011;18335;51.486;7.562;2023-09-30T04:07:55;19.50;;;5.65;;
31760;SDS011;18335;51.486;7.562;2023-09-30T04:10:21;19.77;;;5.65;;
31760;SDS011;18335;51.486;7.562;2023-09-30T04:12:49;15.43;;;4.70;;
31760;SDS011;18335;51.486;7.562;2023-09-30T04:15:17;17.30;;;5.05;;
31760;SDS011;18335;51.486;7.562;2023-09-30T04:17:44;16.75;;;4.90;;
31760;SDS011;18335;51.486;7.562;2023-09-30T04:20:11;12.63;;;4.53;;
31760;SDS011;18335;51.486;7.562;2023-09-30T04:22:42;13.32;;;4.38;;
31760;SDS011;18335;51.486;7.562;2023-09-30T04:25:11;14.00;;;4.88;;
31760;SDS011;18335;51.486;7.562;2023-09-30T04:27:41;16.25;;;4.68;;
31760;SDS011;18335;51.486;7.562;2023-09-30T04:30:09;18.38;;;4.22;;
31760;SDS011;18335;51.486;7.562;2023-09-30T04:32:38;15.25;;;4.35;;
31760;SDS011;18335;51.486;7.562;2023-09-30T04:35:05;15.88;;;5.13;;
31760;SDS011;18335;51.486;7.562;2023-09-30T04:37:33;15.05;;;4.75;;
31760;SDS011;18335;51.486;7.562;2023-09-30T04:40:01;14.93;;;4.65;;
31760;SDS011;18335;51.486;7.562;2023-09-30T04:42:38;12.60;;;4.30;;
31760;SDS011;18335;51.486;7.562;2023-09-30T04:45:05;19.63;;;6.72;;
31760;SDS011;18335;51.486;7.562;2023-09-30T04:47:32;13.70;;;4.53;;
31760;SDS011;18335;51.486;7.562;2023-09-30T04:50:00;17.10;;;4.15;;
31760;SDS011;18335;51.486;7.562;2023-09-30T04:52:30;16.02;;;5.47;;
31760;SDS011;18335;51.486;7.562;2023-09-30T04:54:57;15.38;;;4.38;;
31760;SDS011;18335;51.486;7.562;2023-09-30T04:57:25;13.30;;;5.35;;
31760;SDS011;18335;51.486;7.562;2023-09-30T04:59:52;14.98;;;4.70;;
31760;SDS011;18335;51.486;7.562;2023-09-30T05:02:18;15.13;;;5.53;;
31760;SDS011;18335;51.486;7.562;2023-09-30T05:04:45;21.25;;;6.30;;
31760;SDS011;18335;51.486;7.562;2023-09-30T05:07:13;13.88;;;4.68;;
31760;SDS011;18335;51.486;7.562;2023-09-30T05:09:40;13.35;;;4.55;;
31760;SDS011;18335;51.486;7.562;2023-09-30T05:12:07;14.85;;;5.32;;
31760;SDS011;18335;51.486;7.562;2023-09-30T05:14:35;17.27;;;5.07;;
31760;SDS011;18335;51.486;7.562;2023-09-30T05:17:02;14.38;;;4.70;;
31760;SDS011;18335;51.486;7.562;2023-09-30T05:19:29;16.83;;;5.10;;
31760;SDS011;18335;51.486;7.562;2023-09-30T05:21:57;12.55;;;5.47;;
31760;SDS011;18335;51.486;7.562;2023-09-30T05:24:28;15.23;;;4.88;;
31760;SDS011;18335;51.486;7.562;2023-09-30T05:26:55;15.55;;;4.72;;
31760;SDS011;18335;51.486;7.562;2023-09-30T05:29:22;13.50;;;4.38;;
31760;SDS011;18335;51.486;7.562;2023-09-30T05:31:48;15.55;;;5.00;;
31760;SDS011;18335;51.486;7.562;2023-09-30T05:34:15;17.27;;;5.90;;
31760;SDS011;18335;51.486;7.562;2023-09-30T05:36:42;11.80;;;4.43;;
31760;SDS011;18335;51.486;7.562;2023-09-30T05:39:09;17.13;;;4.90;;
31760;SDS011;18335;51.486;7.562;2023-09-30T05:41:39;11.38;;;4.20;;
31760;SDS011;18335;51.486;7.562;2023-09-30T05:44:07;16.90;;;4.35;;
31760;SDS011;18335;51.486;7.562;2023-09-30T05:46:34;13.43;;;4.15;;
31760;SDS011;18335;51.486;7.562;2023-09-30T05:49:01;14.10;;;4.55;;
31760;SDS011;18335;51.486;7.562;2023-09-30T05:51:32;16.80;;;4.63;;
31760;SDS011;18335;51.486;7.562;2023-09-30T05:53:59;15.75;;;5.70;;
31760;SDS011;18335;51.486;7.562;2023-09-30T05:56:25;15.20;;;4.88;;
31760;SDS011;18335;51.486;7.562;2023-09-30T05:58:54;17.08;;;5.05;;
31760;SDS011;18335;51.486;7.562;2023-09-30T06:01:21;16.27;;;3.70;;
31760;SDS011;18335;51.486;7.562;2023-09-30T06:03:48;15.32;;;3.90;;
31760;SDS011;18335;51.486;7.562;2023-09-30T06:06:14;12.75;;;3.85;;
31760;SDS011;18335;51.486;7.562;2023-09-30T06:08:42;16.73;;;4.90;;
31760;SDS011;18335;51.486;7.562;2023-09-30T06:11:15;16.33;;;4.05;;
31760;SDS011;18335;51.486;7.562;2023-09-30T06:13:42;15.45;;;4.03;;
31760;SDS011;18335;51.486;7.562;2023-09-30T06:16:11;20.67;;;4.78;;
31760;SDS011;18335;51.486;7.562;2023-09-30T06:18:38;22.02;;;5.32;;
31760;SDS011;18335;51.486;7.562;2023-09-30T06:21:05;23.98;;;4.90;;
31760;SDS011;18335;51.486;7.562;2023-09-30T06:23:32;13.85;;;4.72;;
31760;SDS011;18335;51.486;7.562;2023-09-30T06:25:59;21.67;;;5.35;;
31760;SDS011;18335;51.486;7.562;2023-09-30T06:28:27;17.95;;;6.05;;
31760;SDS011;18335;51.486;7.562;2023-09-30T06:30:56;20.48;;;6.32;;
31760;SDS011;18335;51.486;7.562;2023-09-30T06:33:24;14.95;;;4.63;;
31760;SDS011;18335;51.486;7.562;2023-09-30T06:35:54;18.33;;;3.90;;
31760;SDS011;18335;51.486;7.562;2023-09-30T06:38:21;13.90;;;4.63;;
31760;SDS011;18335;51.486;7.562;2023-09-30T06:40:48;20.50;;;3.97;;
31760;SDS011;18335;51.486;7.562;2023-09-30T06:43:15;17.30;;;4.97;;
31760;SDS011;18335;51.486;7.562;2023-09-30T06:45:43;23.35;;;5.15;;
31760;SDS011;18335;51.486;7.562;2023-09-30T06:48:10;16.00;;;4.45;;
31760;SDS011;18335;51.486;7.562;2023-09-30T06:50:40;18.88;;;5.00;;
31760;SDS011;18335;51.486;7.562;2023-09-30T06:53:10;15.73;;;4.28;;
31760;SDS011;18335;51.486;7.562;2023-09-30T06:55:38;17.92;;;5.18;;
31760;SDS011;18335;51.486;7.562;2023-09-30T06:58:05;23.63;;;5.13;;
31760;SDS011;18335;51.486;7.562;2023-09-30T07:00:33;13.52;;;4.70;;
31760;SDS011;18335;51.486;7.562;2023-09-30T07:03:00;17.10;;;4.72;;
31760;SDS011;18335;51.486;7.562;2023-09-30T07:05:27;17.65;;;4.53;;
31760;SDS011;18335;51.486;7.562;2023-09-30T07:07:56;19.83;;;4.47;;
31760;SDS011;18335;51.486;7.562;2023-09-30T07:10:23;15.63;;;4.82;;
31760;SDS011;18335;51.486;7.562;2023-09-30T07:12:50;19.30;;;4.88;;
31760;SDS011;18335;51.486;7.562;2023-09-30T07:15:16;25.25;;;5.38;;
31760;SDS011;18335;51.486;7.562;2023-09-30T07:17:44;16.35;;;5.30;;
31760;SDS011;18335;51.486;7.562;2023-09-30T07:20:12;32.35;;;8.68;;
31760;SDS011;18335;51.486;7.562;2023-09-30T07:22:40;18.20;;;5.95;;
31760;SDS011;18335;51.486;7.562;2023-09-30T07:25:08;17.88;;;5.90;;
31760;SDS011;18335;51.486;7.562;2023-09-30T07:27:35;18.23;;;5.38;;
31760;SDS011;18335;51.486;7.562;2023-09-30T07:30:02;17.27;;;5.20;;
31760;SDS011;18335;51.486;7.562;2023-09-30T07:32:32;19.27;;;4.80;;
31760;SDS011;18335;51.486;7.562;2023-09-30T07:34:58;16.08;;;5.13;;
31760;SDS011;18335;51.486;7.562;2023-09-30T07:37:25;15.10;;;5.70;;
31760;SDS011;18335;51.486;7.562;2023-09-30T07:39:52;18.30;;;4.65;;
31760;SDS011;18335;51.486;7.562;2023-09-30T07:42:20;19.27;;;5.55;;
31760;SDS011;18335;51.486;7.562;2023-09-30T07:44:47;16.38;;;4.97;;
31760;SDS011;18335;51.486;7.562;2023-09-30T07:47:15;17.88;;;5.18;;
31760;SDS011;18335;51.486;7.562;2023-09-30T07:49:42;15.38;;;4.45;;
31760;SDS011;18335;51.486;7.562;2023-09-30T07:52:09;21.02;;;4.68;;
31760;SDS011;18335;51.486;7.562;2023-09-30T07:54:36;17.50;;;5.82;;
31760;SDS011;18335;51.486;7.562;2023-09-30T07:57:03;16.60;;;5.10;;
31760;SDS011;18335;51.486;7.562;2023-09-30T07:59:31;17.60;;;5.03;;
31760;SDS011;18335;51.486;7.562;2023-09-30T08:01:58;13.05;;;4.75;;
31760;SDS011;18335;51.486;7.562;2023-09-30T08:04:25;16.27;;;4.82;;
31760;SDS011;18335;51.486;7.562;2023-09-30T08:06:52;18.90;;;5.25;;
31760;SDS011;18335;51.486;7.562;2023-09-30T08:09:19;19.40;;;4.57;;
31760;SDS011;18335;51.486;7.562;2023-09-30T08:11:47;25.45;;;5.65;;
31760;SDS011;18335;51.486;7.562;2023-09-30T08:14:16;14.10;;;4.50;;
31760;SDS011;18335;51.486;7.562;2023-09-30T08:16:44;20.30;;;5.65;;
31760;SDS011;18335;51.486;7.562;2023-09-30T08:19:11;13.40;;;4.65;;
31760;SDS011;18335;51.486;7.562;2023-09-30T08:21:38;17.80;;;5.15;;
31760;SDS011;18335;51.486;7.562;2023-09-30T08:24:05;16.17;;;4.53;;
31760;SDS011;18335;51.486;7.562;2023-09-30T08:26:33;18.45;;;5.00;;
31760;SDS011;18335;51.486;7.562;2023-09-30T08:29:01;17.63;;;5.32;;
31760;SDS011;18335;51.486;7.562;2023-09-30T08:31:28;17.45;;;4.47;;
31760;SDS011;18335;51.486;7.562;2023-09-30T08:33:56;18.98;;;5.00;;
31760;SDS011;18335;51.486;7.562;2023-09-30T08:36:22;16.25;;;3.90;;
31760;SDS011;18335;51.486;7.562;2023-09-30T08:38:50;14.82;;;3.83;;
31760;SDS011;18335;51.486;7.562;2023-09-30T08:41:23;14.32;;;4.03;;
31760;SDS011;18335;51.486;7.562;2023-09-30T08:43:54;15.52;;;4.22;;
31760;SDS011;18335;51.486;7.562;2023-09-30T08:46:24;17.13;;;4.80;;
31760;SDS011;18335;51.486;7.562;2023-09-30T08:48:51;18.42;;;4.40;;
31760;SDS011;18335;51.486;7.562;2023-09-30T08:51:21;13.20;;;3.30;;
31760;SDS011;18335;51.486;7.562;2023-09-30T08:53:48;13.98;;;4.53;;
31760;SDS011;18335;51.486;7.562;2023-09-30T08:56:16;16.20;;;4.05;;
31760;SDS011;18335;51.486;7.562;2023-09-30T08:58:45;16.13;;;3.70;;
31760;SDS011;18335;51.486;7.562;2023-09-30T09:01:12;12.10;;;3.92;;
31760;SDS011;18335;51.486;7.562;2023-09-30T09:03:39;19.35;;;3.42;;
31760;SDS011;18335;51.486;7.562;2023-09-30T09:06:06;13.55;;;3.97;;
31760;SDS011;18335;51.486;7.562;2023-09-30T09:08:34;12.00;;;4.10;;
31760;SDS011;18335;51.486;7.562;2023-09-30T09:11:01;18.27;;;3.88;;
31760;SDS011;18335;51.486;7.562;2023-09-30T09:13:44;15.25;;;3.90;;
31760;SDS011;18335;51.486;7.562;2023-09-30T09:16:14;13.57;;;3.35;;
31760;SDS011;18335;51.486;7.562;2023-09-30T09:18:43;14.30;;;4.43;;
31760;SDS011;18335;51.486;7.562;2023-09-30T09:21:13;15.77;;;3.67;;
31760;SDS011;18335;51.486;7.562;2023-09-30T09:23:45;15.05;;;4.32;;
31760;SDS011;18335;51.486;7.562;2023-09-30T09:26:12;13.93;;;3.17;;
31760;SDS011;18335;51.486;7.562;2023-09-30T09:28:49;12.15;;;3.50;;
31760;SDS011;18335;51.486;7.562;2023-09-30T09:31:19;9.68;;;3.03;;
31760;SDS011;18335;51.486;7.562;2023-09-30T09:33:48;12.77;;;3.70;;
31760;SDS011;18335;51.486;7.562;2023-09-30T09:36:15;14.30;;;4.47;;
31760;SDS011;18335;51.486;7.562;2023-09-30T09:38:46;12.65;;;3.72;;
31760;SDS011;18335;51.486;7.562;2023-09-30T09:41:15;12.90;;;3.40;;
31760;SDS011;18335;51.486;7.562;2023-09-30T09:43:43;13.80;;;3.25;;
31760;SDS011;18335;51.486;7.562;2023-09-30T09:46:10;12.55;;;3.85;;
31760;SDS011;18335;51.486;7.562;2023-09-30T09:48:39;13.48;;;3.33;;
31760;SDS011;18335;51.486;7.562;2023-09-30T09:51:07;12.35;;;3.60;;
31760;SDS011;18335;51.486;7.562;2023-09-30T09:53:38;10.50;;;3.88;;
31760;SDS011;18335;51.486;7.562;2023-09-30T09:56:09;11.20;;;2.83;;
31760;SDS011;18335;51.486;7.562;2023-09-30T09:58:38;11.90;;;4.28;;
31760;SDS011;18335;51.486;7.562;2023-09-30T10:01:07;11.95;;;4.25;;
31760;SDS011;18335;51.486;7.562;2023-09-30T10:03:36;13.60;;;3.13;;
31760;SDS011;18335;51.486;7.562;2023-09-30T10:06:04;13.48;;;3.60;;
31760;SDS011;18335;51.486;7.562;2023-09-30T10:08:33;9.93;;;3.13;;
31760;SDS011;18335;51.486;7.562;2023-09-30T10:11:04;13.93;;;3.40;;
31760;SDS011;18335;51.486;7.562;2023-09-30T10:13:52;13.50;;;3.45;;
31760;SDS011;18335;51.486;7.562;2023-09-30T10:19:17;7.35;;;2.40;;
31760;SDS011;18335;51.486;7.562;2023-09-30T10:24:50;12.48;;;3.15;;
31760;SDS011;18335;51.486;7.562;2023-09-30T10:27:28;9.10;;;2.97;;
31760;SDS011;18335;51.486;7.562;2023-09-30T10:29:58;13.30;;;3.42;;
31760;SDS011;18335;51.486;7.562;2023-09-30T10:35:44;10.85;;;3.30;;
31760;SDS011;18335;51.486;7.562;2023-09-30T10:41:07;10.85;;;3.00;;
31760;SDS011;18335;51.486;7.562;2023-09-30T10:43:34;11.63;;;3.40;;
31760;SDS011;18335;51.486;7.562;2023-09-30T10:46:04;12.98;;;3.67;;
31760;SDS011;18335;51.486;7.562;2023-09-30T10:48:51;12.38;;;3.00;;
31760;SDS011;18335;51.486;7.562;2023-09-30T10:51:18;9.73;;;3.25;;
31760;SDS011;18335;51.486;7.562;2023-09-30T10:53:48;9.80;;;3.22;;
31760;SDS011;18335;51.486;7.562;2023-09-30T10:56:16;9.60;;;3.00;;
31760;SDS011;18335;51.486;7.562;2023-09-30T10:58:44;10.80;;;3.40;;
31760;SDS011;18335;51.486;7.562;2023-09-30T11:01:14;13.30;;;3.55;;
31760;SDS011;18335;51.486;7.562;2023-09-30T11:03:42;10.02;;;3.22;;
31760;SDS011;18335;51.486;7.562;2023-09-30T11:06:11;11.43;;;3.25;;
31760;SDS011;18335;51.486;7.562;2023-09-30T11:08:44;9.70;;;3.17;;
31760;SDS011;18335;51.486;7.562;2023-09-30T11:11:12;12.02;;;2.95;;
31760;SDS011;18335;51.486;7.562;2023-09-30T11:13:39;10.48;;;2.55;;
31760;SDS011;18335;51.486;7.562;2023-09-30T11:16:09;8.57;;;2.90;;
31760;SDS011;18335;51.486;7.562;2023-09-30T11:18:37;15.35;;;3.40;;
31760;SDS011;18335;51.486;7.562;2023-09-30T11:21:05;8.15;;;2.60;;
31760;SDS011;18335;51.486;7.562;2023-09-30T11:23:34;16.80;;;4.05;;
31760;SDS011;18335;51.486;7.562;2023-09-30T11:26:01;7.32;;;2.42;;
31760;SDS011;18335;51.486;7.562;2023-09-30T11:28:35;7.93;;;2.42;;
31760;SDS011;18335;51.486;7.562;2023-09-30T11:31:06;7.68;;;2.40;;
31760;SDS011;18335;51.486;7.562;2023-09-30T11:33:50;8.25;;;2.40;;
31760;SDS011;18335;51.486;7.562;2023-09-30T11:36:18;9.32;;;2.30;;
31760;SDS011;18335;51.486;7.562;2023-09-30T11:38:46;9.63;;;2.78;;
31760;SDS011;18335;51.486;7.562;2023-09-30T11:41:15;9.02;;;2.65;;
31760;SDS011;18335;51.486;7.562;2023-09-30T11:44:00;10.52;;;3.20;;
31760;SDS011;18335;51.486;7.562;2023-09-30T11:46:30;8.93;;;3.05;;
31760;SDS011;18335;51.486;7.562;2023-09-30T11:49:01;11.65;;;2.90;;
31760;SDS011;18335;51.486;7.562;2023-09-30T11:51:30;10.30;;;3.20;;
31760;SDS011;18335;51.486;7.562;2023-09-30T11:54:11;11.68;;;3.00;;
31760;SDS011;18335;51.486;7.562;2023-09-30T11:56:40;10.70;;;3.42;;
31760;SDS011;18335;51.486;7.562;2023-09-30T11:59:07;11.45;;;3.78;;
31760;SDS011;18335;51.486;7.562;2023-09-30T12:01:36;8.63;;;3.22;;
31760;SDS011;18335;51.486;7.562;2023-09-30T12:04:04;8.88;;;3.35;;
31760;SDS011;18335;51.486;7.562;2023-09-30T12:06:32;12.55;;;3.33;;
31760;SDS011;18335;51.486;7.562;2023-09-30T12:08:59;12.15;;;3.65;;
31760;SDS011;18335;51.486;7.562;2023-09-30T12:11:28;9.57;;;2.85;;
31760;SDS011;18335;51.486;7.562;2023-09-30T12:13:55;9.45;;;2.72;;
31760;SDS011;18335;51.486;7.562;2023-09-30T12:16:21;13.02;;;3.08;;
31760;SDS011;18335;51.486;7.562;2023-09-30T12:18:49;8.07;;;3.38;;
31760;SDS011;18335;51.486;7.562;2023-09-30T12:21:17;8.52;;;2.75;;
31760;SDS011;18335;51.486;7.562;2023-09-30T12:23:45;9.63;;;3.17;;
31760;SDS011;18335;51.486;7.562;2023-09-30T12:26:14;8.88;;;2.80;;
31760;SDS011;18335;51.486;7.562;2023-09-30T12:28:43;9.68;;;3.03;;
31760;SDS011;18335;51.486;7.562;2023-09-30T12:31:09;8.77;;;2.85;;
31760;SDS011;18335;51.486;7.562;2023-09-30T12:33:36;10.77;;;2.58;;
31760;SDS011;18335;51.486;7.562;2023-09-30T12:36:03;11.40;;;2.92;;
31760;SDS011;18335;51.486;7.562;2023-09-30T12:38:32;8.05;;;2.63;;
31760;SDS011;18335;51.486;7.562;2023-09-30T12:40:59;9.65;;;2.85;;
31760;SDS011;18335;51.486;7.562;2023-09-30T12:43:26;8.65;;;2.40;;
31760;SDS011;18335;51.486;7.562;2023-09-30T12:45:53;6.43;;;2.42;;
31760;SDS011;18335;51.486;7.562;2023-09-30T12:48:20;11.27;;;2.75;;
31760;SDS011;18335;51.486;7.562;2023-09-30T12:50:47;8.45;;;2.35;;
31760;SDS011;18335;51.486;7.562;2023-09-30T12:53:13;6.30;;;2.78;;
31760;SDS011;18335;51.486;7.562;2023-09-30T12:55:42;8.15;;;2.67;;
31760;SDS011;18335;51.486;7.562;2023-09-30T12:58:09;11.23;;;2.92;;
31760;SDS011;18335;51.486;7.562;2023-09-30T13:00:36;9.70;;;3.40;;
31760;SDS011;18335;51.486;7.562;2023-09-30T13:03:03;9.13;;;2.63;;
31760;SDS011;18335;51.486;7.562;2023-09-30T13:05:30;10.75;;;2.70;;
31760;SDS011;18335;51.486;7.562;2023-09-30T13:07:57;6.43;;;2.40;;
31760;SDS011;18335;51.486;7.562;2023-09-30T13:10:24;8.50;;;2.63;;
31760;SDS011;18335;51.486;7.562;2023-09-30T13:12:53;9.30;;;2.72;;
31760;SDS011;18335;51.486;7.562;2023-09-30T13:15:20;8.35;;;2.15;;
31760;SDS011;18335;51.486;7.562;2023-09-30T13:17:49;7.20;;;2.75;;
31760;SDS011;18335;51.486;7.562;2023-09-30T13:20:16;10.38;;;2.85;;
31760;SDS011;18335;51.486;7.562;2023-09-30T13:22:43;10.90;;;2.92;;
31760;SDS011;18335;51.486;7.562;2023-09-30T13:25:10;9.65;;;2.55;;
31760;SDS011;18335;51.486;7.562;2023-09-30T13:27:38;8.20;;;3.10;;
31760;SDS011;18335;51.486;7.562;2023-09-30T13:30:07;6.72;;;2.45;;
31760;SDS011;18335;51.486;7.562;2023-09-30T13:32:35;9.90;;;2.95;;
31760;SDS011;18335;51.486;7.562;2023-09-30T13:35:02;10.40;;;3.55;;
31760;SDS011;18335;51.486;7.562;2023-09-30T13:37:30;7.55;;;3.47;;
31760;SDS011;18335;51.486;7.562;2023-09-30T13:39:58;11.18;;;3.20;;
31760;SDS011;18335;51.486;7.562;2023-09-30T13:42:26;10.35;;;4.00;;
31760;SDS011;18335;51.486;7.562;2023-09-30T13:44:53;9.07;;;3.35;;
31760;SDS011;18335;51.486;7.562;2023-09-30T13:47:24;11.50;;;3.22;;
31760;SDS011;18335;51.486;7.562;2023-09-30T13:49:51;8.23;;;2.90;;
31760;SDS011;18335;51.486;7.562;2023-09-30T13:52:20;9.52;;;3.15;;
31760;SDS011;18335;51.486;7.562;2023-09-30T13:54:47;10.20;;;2.90;;
31760;SDS011;18335;51.486;7.562;2023-09-30T13:57:14;7.03;;;2.90;;
31760;SDS011;18335;51.486;7.562;2023-09-30T13:59:41;12.27;;;3.25;;
31760;SDS011;18335;51.486;7.562;2023-09-30T14:02:08;8.20;;;2.80;;
31760;SDS011;18335;51.486;7.562;2023-09-30T14:04:36;8.10;;;3.08;;
31760;SDS011;18335;51.486;7.562;2023-09-30T14:07:03;9.02;;;3.65;;
31760;SDS011;18335;51.486;7.562;2023-09-30T14:09:33;9.45;;;3.45;;
31760;SDS011;18335;51.486;7.562;2023-09-30T14:12:00;7.93;;;2.75;;
31760;SDS011;18335;51.486;7.562;2023-09-30T14:14:30;7.95;;;3.30;;
31760;SDS011;18335;51.486;7.562;2023-09-30T14:16:57;10.07;;;3.63;;
31760;SDS011;18335;51.486;7.562;2023-09-30T14:19:24;10.35;;;3.17;;
31760;SDS011;18335;51.486;7.562;2023-09-30T14:21:52;9.95;;;3.25;;
31760;SDS011;18335;51.486;7.562;2023-09-30T14:24:19;10.27;;;2.95;;
31760;SDS011;18335;51.486;7.562;2023-09-30T14:26:46;7.75;;;3.35;;
31760;SDS011;18335;51.486;7.562;2023-09-30T14:29:12;9.25;;;3.83;;
31760;SDS011;18335;51.486;7.562;2023-09-30T14:31:39;10.25;;;2.90;;
31760;SDS011;18335;51.486;7.562;2023-09-30T14:34:06;9.73;;;3.70;;
31760;SDS011;18335;51.486;7.562;2023-09-30T14:36:33;8.75;;;3.47;;
31760;SDS011;18335;51.486;7.562;2023-09-30T14:39:01;9.93;;;3.92;;
31760;SDS011;18335;51.486;7.562;2023-09-30T14:41:30;8.00;;;3.08;;
31760;SDS011;18335;51.486;7.562;2023-09-30T14:43:58;8.07;;;3.17;;
31760;SDS011;18335;51.486;7.562;2023-09-30T14:46:24;9.20;;;3.42;;
31760;SDS011;18335;51.486;7.562;2023-09-30T14:48:51;7.38;;;3.22;;
31760;SDS011;18335;51.486;7.562;2023-09-30T14:51:18;7.28;;;2.97;;
31760;SDS011;18335;51.486;7.562;2023-09-30T14:53:48;8.27;;;2.80;;
31760;SDS011;18335;51.486;7.562;2023-09-30T14:56:17;7.57;;;3.17;;